createdAt,value
2023-04-14T00:01:16.686Z,10.45
2023-04-14T00:03:43.294Z,10.51
2023-04-14T00:06:09.690Z,10.41
2023-04-14T00:08:36.046Z,10.43
2023-04-14T00:11:02.192Z,10.51
2023-04-14T00:13:28.685Z,10.35
2023-04-14T00:15:55.484Z,10.37
2023-04-14T00:18:21.943Z,10.48
2023-04-14T00:20:48.056Z,10.52
2023-04-14T00:23:14.740Z,10.47
2023-04-14T00:25:40.900Z,10.57
2023-04-14T00:28:07.258Z,10.73
2023-04-14T00:30:33.330Z,10.66
2023-04-14T00:32:59.849Z,10.70
2023-04-14T00:35:26.156Z,10.62
2023-04-14T00:37:52.641Z,10.58
2023-04-14T00:40:18.708Z,10.65
2023-04-14T00:42:46.250Z,10.71
2023-04-14T00:45:14.205Z,10.70
2023-04-14T00:47:46.021Z,10.61
2023-04-14T00:50:17.600Z,10.47
2023-04-14T00:52:47.182Z,10.52
2023-04-14T00:55:19.162Z,10.57
2023-04-14T00:57:46.009Z,10.43
2023-04-14T01:00:13.153Z,10.45
2023-04-14T01:02:41.925Z,10.40
2023-04-14T01:05:08.373Z,10.32
2023-04-14T01:07:36.333Z,10.36
2023-04-14T01:10:03.591Z,10.36
2023-04-14T01:12:56.912Z,10.50
2023-04-14T01:15:38.036Z,10.47
2023-04-14T01:18:20.732Z,10.41
2023-04-14T01:20:55.908Z,10.39
2023-04-14T01:23:26.535Z,10.48
2023-04-14T01:26:20.880Z,10.54
2023-04-14T01:29:12.384Z,10.49
2023-04-14T01:32:04.746Z,10.54
2023-04-14T01:34:51.651Z,10.52
2023-04-14T01:37:25.396Z,10.56
2023-04-14T01:39:54.734Z,10.50
2023-04-14T01:42:25.938Z,10.53
2023-04-14T01:44:56.542Z,10.42
2023-04-14T01:47:25.232Z,10.42
2023-04-14T01:49:54.978Z,10.55
2023-04-14T01:52:22.184Z,10.53
2023-04-14T01:54:51.550Z,10.54
2023-04-14T01:57:22.147Z,10.49
2023-04-14T01:59:54.274Z,10.55
2023-04-14T02:02:22.472Z,10.44
2023-04-14T02:04:51.140Z,10.54
2023-04-14T02:07:21.089Z,10.64
2023-04-14T02:09:48.901Z,10.55
2023-04-14T02:12:17.849Z,10.65
2023-04-14T02:14:46.773Z,10.73
2023-04-14T02:17:15.801Z,10.64
2023-04-14T02:19:45.487Z,10.76
2023-04-14T02:22:11.903Z,10.69
2023-04-14T02:24:38.517Z,10.62
2023-04-14T02:27:18.222Z,10.66
2023-04-14T02:29:50.391Z,10.78
2023-04-14T02:32:24.043Z,10.78
2023-04-14T02:35:12.846Z,10.85
2023-04-14T02:37:41.867Z,10.84
2023-04-14T02:40:16.307Z,10.89
2023-04-14T02:42:47.418Z,10.90
2023-04-14T02:45:21.728Z,10.93
2023-04-14T02:47:54.382Z,10.99
2023-04-14T02:50:21.914Z,11.02
2023-04-14T02:53:01.442Z,10.96
2023-04-14T02:55:34.090Z,10.93
2023-04-14T02:58:00.762Z,10.89
2023-04-14T03:00:29.751Z,10.96
2023-04-14T03:02:57.270Z,10.98
2023-04-14T03:05:24.028Z,10.98
2023-04-14T03:08:10.124Z,11.00
2023-04-14T03:10:39.004Z,11.00
2023-04-14T03:13:07.147Z,11.05
2023-04-14T03:15:35.507Z,10.98
2023-04-14T03:18:03.088Z,10.90
2023-04-14T03:20:31.359Z,10.82
2023-04-14T03:23:01.159Z,10.82
2023-04-14T03:25:32.452Z,10.74
2023-04-14T03:28:01.861Z,10.76
2023-04-14T03:30:31.616Z,10.80
2023-04-14T03:33:05.504Z,10.81
2023-04-14T03:35:33.664Z,10.81
2023-04-14T03:38:01.700Z,10.78
2023-04-14T03:40:34.195Z,10.75
2023-04-14T03:43:02.227Z,10.72
2023-04-14T03:45:29.066Z,10.64
2023-04-14T03:48:02.088Z,10.68
2023-04-14T03:50:36.196Z,10.66
2023-04-14T03:53:05.682Z,10.65
2023-04-14T03:55:35.259Z,10.60
2023-04-14T03:58:02.470Z,10.59
2023-04-14T04:00:30.400Z,10.61
2023-04-14T04:02:57.902Z,10.59
2023-04-14T04:05:24.782Z,10.61
2023-04-14T04:07:51.794Z,10.66
2023-04-14T04:10:20.404Z,10.74
2023-04-14T04:12:48.709Z,10.73
2023-04-14T04:15:16.298Z,10.75
2023-04-14T04:17:43.381Z,10.67
2023-04-14T04:20:14.487Z,10.77
2023-04-14T04:22:43.920Z,10.80
2023-04-14T04:25:10.893Z,10.84
2023-04-14T04:27:40.671Z,10.84
2023-04-14T04:30:15.687Z,10.90
2023-04-14T04:32:42.054Z,10.86
2023-04-14T04:35:11.553Z,10.73
2023-04-14T04:37:41.549Z,10.78
2023-04-14T04:40:08.553Z,10.76
2023-04-14T04:42:40.147Z,10.79
2023-04-14T04:45:07.836Z,10.76
2023-04-14T04:47:35.164Z,10.84
2023-04-14T04:50:01.764Z,10.82
2023-04-14T04:52:28.145Z,10.82
2023-04-14T04:54:54.669Z,10.87
2023-04-14T04:57:20.847Z,10.88
2023-04-14T04:59:47.515Z,10.87
2023-04-14T05:02:13.716Z,10.90
2023-04-14T05:04:40.519Z,10.81
2023-04-14T05:07:07.100Z,10.87
2023-04-14T05:09:33.575Z,10.86
2023-04-14T05:11:59.915Z,10.97
2023-04-14T05:14:27.574Z,10.99
2023-04-14T05:16:53.896Z,10.98
2023-04-14T05:19:20.335Z,10.99
2023-04-14T05:21:46.538Z,11.09
2023-04-14T05:24:13.013Z,11.23
2023-04-14T05:29:08.596Z,11.31
2023-04-14T05:31:34.835Z,11.40
2023-04-14T05:34:01.391Z,11.41
2023-04-14T05:36:27.709Z,11.34
2023-04-14T05:38:54.132Z,11.34
2023-04-14T05:41:21.282Z,11.41
2023-04-14T05:43:47.753Z,11.35
2023-04-14T05:46:13.876Z,11.29
2023-04-14T05:48:40.283Z,11.29
2023-04-14T05:51:06.303Z,11.27
2023-04-14T05:53:32.652Z,11.31
2023-04-14T05:55:58.742Z,11.24
2023-04-14T05:58:25.981Z,11.33
2023-04-14T06:00:52.340Z,11.31
2023-04-14T06:03:18.951Z,11.31
2023-04-14T06:05:47.495Z,11.32
2023-04-14T06:08:14.336Z,11.28
2023-04-14T06:10:40.693Z,11.27
2023-04-14T06:13:07.924Z,11.25
2023-04-14T06:15:34.300Z,11.16
2023-04-14T06:18:00.850Z,11.26
2023-04-14T06:20:27.288Z,11.20
2023-04-14T06:22:54.202Z,11.23
2023-04-14T06:25:20.830Z,11.31
2023-04-14T06:27:47.538Z,11.26
2023-04-14T06:30:16.476Z,11.41
2023-04-14T06:32:43.044Z,11.40
2023-04-14T06:35:16.352Z,11.43
2023-04-14T06:37:45.712Z,11.40
2023-04-14T06:40:12.074Z,11.27
2023-04-14T06:42:38.416Z,11.17
2023-04-14T06:45:04.801Z,11.17
2023-04-14T06:47:31.352Z,11.22
2023-04-14T06:49:58.044Z,11.14
2023-04-14T06:52:24.515Z,11.21
2023-04-14T06:54:50.719Z,11.14
2023-04-14T06:57:17.172Z,11.12
2023-04-14T06:59:43.291Z,11.22
2023-04-14T07:02:09.731Z,11.23
2023-04-14T07:04:37.261Z,11.31
2023-04-14T07:07:04.134Z,11.46
2023-04-14T07:09:30.465Z,11.44
2023-04-14T07:11:57.273Z,11.54
2023-04-14T07:14:24.153Z,11.53
2023-04-14T07:16:52.412Z,11.46
2023-04-14T07:19:19.354Z,11.60
2023-04-14T07:21:46.802Z,11.56
2023-04-14T07:24:15.370Z,11.51
2023-04-14T07:26:43.486Z,11.55
2023-04-14T07:29:09.928Z,11.44
2023-04-14T07:31:37.294Z,11.46
2023-04-14T07:34:03.570Z,11.40
2023-04-14T07:36:31.135Z,11.56
2023-04-14T07:38:57.285Z,11.63
2023-04-14T07:41:24.061Z,11.71
2023-04-14T07:43:50.176Z,11.64
2023-04-14T07:46:16.550Z,11.79
2023-04-14T07:48:42.605Z,11.81
2023-04-14T07:51:10.741Z,11.69
2023-04-14T07:53:41.540Z,11.63
2023-04-14T07:56:08.277Z,11.67
2023-04-14T07:58:34.603Z,11.61
2023-04-14T08:01:01.672Z,11.58
2023-04-14T08:03:27.998Z,11.73
2023-04-14T08:05:54.960Z,11.64
2023-04-14T08:08:21.454Z,11.67
2023-04-14T08:10:47.897Z,11.64
2023-04-14T08:13:14.089Z,11.67
2023-04-14T08:15:40.802Z,11.65
2023-04-14T08:18:07.119Z,11.71
2023-04-14T08:20:37.436Z,11.70
2023-04-14T08:23:03.855Z,11.76
2023-04-14T08:25:30.573Z,11.76
2023-04-14T08:27:57.147Z,11.87
2023-04-14T08:30:23.929Z,11.85
2023-04-14T08:32:50.147Z,11.86
2023-04-14T08:35:35.576Z,12.08
2023-04-14T08:38:04.311Z,12.00
2023-04-14T08:40:37.479Z,12.13
2023-04-14T08:43:04.912Z,12.18
2023-04-14T08:45:32.431Z,12.23
2023-04-14T08:48:00.139Z,12.26
2023-04-14T08:50:32.490Z,12.37
2023-04-14T08:53:03.407Z,12.44
2023-04-14T08:55:32.222Z,12.40
2023-04-14T08:58:00.372Z,12.44
2023-04-14T09:00:26.868Z,12.55
2023-04-14T09:02:53.774Z,12.71
2023-04-14T09:05:21.046Z,12.72
2023-04-14T09:07:47.408Z,12.61
2023-04-14T09:10:14.318Z,12.70
2023-04-14T09:12:42.051Z,12.86
2023-04-14T09:15:09.220Z,12.86
2023-04-14T09:17:36.012Z,12.95
2023-04-14T09:20:34.767Z,12.76
2023-04-14T09:22:49.359Z,12.77
2023-04-14T09:25:18.028Z,12.76
2023-04-14T09:27:44.844Z,12.82
2023-04-14T09:30:11.730Z,12.91
2023-04-14T09:32:38.989Z,12.86
2023-04-14T09:35:06.280Z,13.02
2023-04-14T09:37:46.195Z,13.16
2023-04-14T09:40:30.204Z,13.05
2023-04-14T09:42:57.054Z,13.21
2023-04-14T09:45:44.078Z,13.16
2023-04-14T09:48:12.334Z,13.08
2023-04-14T09:51:06.204Z,13.19
2023-04-14T09:53:34.929Z,13.26
2023-04-14T09:56:05.157Z,13.32
2023-04-14T09:58:42.533Z,13.36
2023-04-14T10:01:19.219Z,13.45
2023-04-14T10:03:47.259Z,13.46
2023-04-14T10:06:21.510Z,13.47
2023-04-14T10:08:49.388Z,13.45
2023-04-14T10:11:17.163Z,13.53
2023-04-14T10:13:53.417Z,13.73
2023-04-14T10:16:23.690Z,14.04
2023-04-14T10:18:51.468Z,14.23
2023-04-14T10:21:21.320Z,14.37
2023-04-14T10:23:48.419Z,14.34
2023-04-14T10:26:15.519Z,14.39
2023-04-14T10:28:45.326Z,14.68
2023-04-14T10:31:19.410Z,14.92
2023-04-14T10:33:45.986Z,15.09
2023-04-14T10:36:21.964Z,15.11
2023-04-14T10:38:48.170Z,15.36
2023-04-14T10:41:14.734Z,15.53
2023-04-14T10:43:41.028Z,15.43
2023-04-14T10:46:10.307Z,15.52
2023-04-14T10:48:40.727Z,15.75
2023-04-14T10:51:09.788Z,15.94
2023-04-14T10:53:38.441Z,15.86
2023-04-14T10:56:05.498Z,15.87
2023-04-14T10:58:34.514Z,16.13
2023-04-14T11:01:20.976Z,16.14
2023-04-14T11:03:47.342Z,16.20
2023-04-14T11:06:13.802Z,16.44
2023-04-14T11:08:49.488Z,16.47
2023-04-14T11:11:16.183Z,16.53
2023-04-14T11:13:42.366Z,16.39
2023-04-14T11:16:10.185Z,16.37
2023-04-14T11:18:43.344Z,16.50
2023-04-14T11:21:17.567Z,16.63
2023-04-14T11:23:44.277Z,16.60
2023-04-14T11:26:12.752Z,16.77
2023-04-14T11:28:41.861Z,16.79
2023-04-14T11:31:11.538Z,16.68
2023-04-14T11:33:40.431Z,16.79
2023-04-14T11:36:09.064Z,16.86
2023-04-14T11:38:39.691Z,16.87
2023-04-14T11:41:07.126Z,16.68
2023-04-14T11:43:33.822Z,16.79
2023-04-14T11:46:01.418Z,16.78
2023-04-14T11:48:30.146Z,16.91
2023-04-14T11:51:02.482Z,17.15
2023-04-14T11:53:28.840Z,17.27
2023-04-14T11:55:56.791Z,17.42
2023-04-14T11:58:27.006Z,17.36
2023-04-14T12:00:56.772Z,17.66
2023-04-14T12:03:28.229Z,17.86
2023-04-14T12:05:59.134Z,17.90
2023-04-14T12:08:25.302Z,18.02
2023-04-14T12:10:53.250Z,18.17
2023-04-14T12:13:19.758Z,18.03
2023-04-14T12:15:46.967Z,18.21
2023-04-14T12:18:15.058Z,18.34
2023-04-14T12:20:53.100Z,18.22
2023-04-14T12:23:19.919Z,18.26
2023-04-14T12:25:50.738Z,18.39
2023-04-14T12:28:18.008Z,18.46
2023-04-14T12:30:52.423Z,18.58
2023-04-14T12:33:22.967Z,18.57
2023-04-14T12:35:50.579Z,18.46
2023-04-14T12:38:17.479Z,18.27
2023-04-14T12:40:46.985Z,18.09
2023-04-14T12:43:15.459Z,17.93
2023-04-14T12:45:50.803Z,17.77
2023-04-14T12:48:17.710Z,17.90
2023-04-14T12:50:44.517Z,18.24
2023-04-14T12:53:27.994Z,18.56
2023-04-14T12:56:09.802Z,18.95
2023-04-14T12:58:38.036Z,19.13
2023-04-14T13:01:06.989Z,19.21
2023-04-14T13:03:40.470Z,19.18
2023-04-14T13:06:07.684Z,18.69
2023-04-14T13:08:33.904Z,18.63
2023-04-14T13:11:00.759Z,18.50
2023-04-14T13:13:27.136Z,18.55
2023-04-14T13:16:13.585Z,18.30
2023-04-14T13:18:39.910Z,18.19
2023-04-14T13:21:06.591Z,18.12
2023-04-14T13:23:33.292Z,18.27
2023-04-14T13:26:00.133Z,18.26
2023-04-14T13:28:26.794Z,18.23
2023-04-14T13:30:57.454Z,18.26
2023-04-14T13:33:24.831Z,18.27
2023-04-14T13:35:52.358Z,18.33
2023-04-14T13:38:18.477Z,18.31
2023-04-14T13:40:47.540Z,18.39
2023-04-14T13:43:17.344Z,18.24
2023-04-14T13:45:44.368Z,18.39
2023-04-14T13:48:10.610Z,18.46
2023-04-14T13:50:37.303Z,18.59
2023-04-14T13:53:03.628Z,18.80
2023-04-14T13:55:30.085Z,18.86
2023-04-14T13:57:56.283Z,18.82
2023-04-14T14:00:22.785Z,18.93
2023-04-14T14:02:49.308Z,18.66
2023-04-14T14:05:16.156Z,18.65
2023-04-14T14:07:42.472Z,18.66
2023-04-14T14:10:10.096Z,18.75
2023-04-14T14:12:36.949Z,18.85
2023-04-14T14:15:04.838Z,18.93
2023-04-14T14:17:31.342Z,19.08
2023-04-14T14:19:58.300Z,19.55
2023-04-14T14:22:24.818Z,19.52
2023-04-14T14:24:51.428Z,19.13
2023-04-14T14:27:17.499Z,18.93
2023-04-14T14:29:43.997Z,18.77
2023-04-14T14:32:10.247Z,18.76
2023-04-14T14:34:38.306Z,18.76
2023-04-14T14:37:05.012Z,18.71
2023-04-14T14:39:31.975Z,18.78
2023-04-14T14:41:58.733Z,18.87
2023-04-14T14:44:25.273Z,18.91
2023-04-14T14:46:52.318Z,18.87
2023-04-14T14:49:20.450Z,18.67
2023-04-14T14:51:46.754Z,18.67
2023-04-14T14:54:13.671Z,18.60
2023-04-14T14:56:40.153Z,18.53
2023-04-14T14:59:07.775Z,18.44
2023-04-14T15:01:34.052Z,18.49
2023-04-14T15:04:00.786Z,18.50
2023-04-14T15:06:27.240Z,18.48
2023-04-14T15:08:53.649Z,18.43
2023-04-14T15:11:20.584Z,18.48
2023-04-14T15:13:47.193Z,18.30
2023-04-14T15:16:13.459Z,18.29
2023-04-14T15:18:42.300Z,18.29
2023-04-14T15:21:08.500Z,18.41
2023-04-14T15:23:38.755Z,18.25
2023-04-14T15:26:05.156Z,18.18
2023-04-14T15:28:31.711Z,18.27
2023-04-14T15:30:57.875Z,18.26
2023-04-14T15:33:24.617Z,18.08
2023-04-14T15:35:50.931Z,18.09
2023-04-14T15:38:17.376Z,18.05
2023-04-14T15:40:43.632Z,17.98
2023-04-14T15:43:10.883Z,18.01
2023-04-14T15:45:37.393Z,18.05
2023-04-14T15:48:04.073Z,17.91
2023-04-14T15:50:30.401Z,17.78
2023-04-14T15:52:57.172Z,17.77
2023-04-14T15:55:23.485Z,17.72
2023-04-14T15:57:51.011Z,17.70
2023-04-14T16:00:18.240Z,17.70
2023-04-14T16:14:32.956Z,17.71
2023-04-14T16:16:59.708Z,17.69
2023-04-14T16:19:25.930Z,17.57
2023-04-14T16:21:54.144Z,17.35
2023-04-14T16:24:20.384Z,17.28
2023-04-14T16:26:47.575Z,17.14
2023-04-14T16:29:13.705Z,17.06
2023-04-14T16:31:40.481Z,17.05
2023-04-14T16:34:06.868Z,16.96
2023-04-14T16:36:33.511Z,16.88
2023-04-14T16:39:00.665Z,16.81
2023-04-14T16:41:28.127Z,16.77
2023-04-14T16:43:54.329Z,16.75
2023-04-14T16:46:20.902Z,16.73
2023-04-14T16:48:48.810Z,16.66
2023-04-14T16:51:15.395Z,16.60
2023-04-14T16:53:43.429Z,16.58
2023-04-14T16:56:11.029Z,16.52
2023-04-14T16:58:38.228Z,16.55
2023-04-14T17:01:06.912Z,16.46
2023-04-14T17:03:34.204Z,16.43
2023-04-14T17:06:00.902Z,16.41
2023-04-14T17:08:27.466Z,16.39
2023-04-14T17:10:53.972Z,16.32
2023-04-14T17:13:20.708Z,16.29
2023-04-14T17:15:55.627Z,16.30
2023-04-14T17:18:23.507Z,16.22
2023-04-14T17:20:50.028Z,16.17
2023-04-14T17:23:16.675Z,16.12
2023-04-14T17:25:44.429Z,16.11
2023-04-14T17:28:10.859Z,16.13
2023-04-14T17:30:38.065Z,16.09
2023-04-14T17:33:07.026Z,16.03
2023-04-14T17:35:34.245Z,15.99
2023-04-14T17:38:02.817Z,15.99
2023-04-14T17:40:30.342Z,15.94
2023-04-14T17:42:57.051Z,15.90
2023-04-14T17:45:23.674Z,15.85
2023-04-14T17:47:51.594Z,15.81
2023-04-14T17:50:22.298Z,15.79
2023-04-14T17:52:50.330Z,15.77
2023-04-14T17:55:17.545Z,15.71
2023-04-14T17:57:47.422Z,15.67
2023-04-14T18:00:14.202Z,15.70
2023-04-14T18:02:40.686Z,15.64
2023-04-14T18:05:08.756Z,15.72
2023-04-14T18:07:35.956Z,15.59
2023-04-14T18:10:02.840Z,15.55
2023-04-14T18:12:30.147Z,15.58
2023-04-14T18:14:56.862Z,15.61
2023-04-14T18:17:24.210Z,15.49
2023-04-14T18:19:51.053Z,15.47
2023-04-14T18:22:17.696Z,15.49
2023-04-14T18:29:43.593Z,15.36
2023-04-14T18:32:09.800Z,15.36
2023-04-14T18:34:36.594Z,15.32
2023-04-14T18:37:03.789Z,15.33
2023-04-14T18:39:32.918Z,15.42
2023-04-14T18:42:00.254Z,15.28
2023-04-14T18:44:27.338Z,15.33
2023-04-14T18:46:54.459Z,15.25
2023-04-14T18:49:21.604Z,15.23
2023-04-14T18:51:48.183Z,15.25
2023-04-14T18:54:14.825Z,15.27
2023-04-14T18:56:41.236Z,15.25
2023-04-14T18:59:08.535Z,15.20
2023-04-14T19:01:36.008Z,15.23
2023-04-14T19:04:03.273Z,15.25
2023-04-14T19:06:29.861Z,15.22
2023-04-14T19:08:56.776Z,15.20
2023-04-14T19:11:23.388Z,15.16
2023-04-14T19:13:50.066Z,15.17
2023-04-14T19:16:16.567Z,15.17
2023-04-14T19:18:46.239Z,15.13
2023-04-14T19:21:20.109Z,15.10
2023-04-14T19:23:46.873Z,15.02
2023-04-14T19:26:13.380Z,15.04
2023-04-14T19:28:41.767Z,15.06
2023-04-14T19:31:08.105Z,14.98
2023-04-14T19:33:35.274Z,14.98
2023-04-14T19:36:02.077Z,14.91
2023-04-14T19:38:28.783Z,14.91
2023-04-14T19:40:56.220Z,14.92
2023-04-14T19:43:23.438Z,14.99
2023-04-14T19:45:51.086Z,14.90
2023-04-14T19:48:23.902Z,14.89
2023-04-14T19:50:54.677Z,14.89
2023-04-14T19:53:23.642Z,14.90
2023-04-14T19:55:52.779Z,14.83
2023-04-14T19:58:21.420Z,14.86
2023-04-14T20:00:50.301Z,14.79
2023-04-14T20:03:18.581Z,14.83
2023-04-14T20:05:49.904Z,14.71
2023-04-14T20:08:17.796Z,14.67
2023-04-14T20:10:44.094Z,14.66
2023-04-14T20:13:10.600Z,14.72
2023-04-14T20:15:37.109Z,14.59
2023-04-14T20:18:04.038Z,14.58
2023-04-14T20:20:30.314Z,14.54
2023-04-14T20:22:58.032Z,14.49
2023-04-14T20:25:24.731Z,14.46
2023-04-14T20:27:51.488Z,14.47
2023-04-14T20:30:17.871Z,14.44
2023-04-14T20:32:44.790Z,14.33
2023-04-14T20:35:11.167Z,14.35
2023-04-14T20:37:37.719Z,14.23
2023-04-14T20:40:04.695Z,14.22
2023-04-14T20:42:31.376Z,14.17
2023-04-14T20:44:57.850Z,14.12
2023-04-14T20:47:24.792Z,14.08
2023-04-14T20:49:51.124Z,14.01
2023-04-14T20:52:25.695Z,14.01
2023-04-14T20:54:52.095Z,13.96
2023-04-14T20:57:18.785Z,13.91
2023-04-14T20:59:45.051Z,13.92
2023-04-14T21:02:12.087Z,13.90
2023-04-14T21:04:38.557Z,13.87
2023-04-14T21:07:05.801Z,13.86
2023-04-14T21:09:32.304Z,13.84
2023-04-14T21:12:14.801Z,13.84
2023-04-14T21:15:29.553Z,13.80
2023-04-14T21:17:30.550Z,13.78
2023-04-14T21:19:56.963Z,13.77
2023-04-14T21:22:23.624Z,13.85
2023-04-14T21:24:51.171Z,13.76
2023-04-14T21:27:18.971Z,13.78
2023-04-14T21:29:45.118Z,13.75
2023-04-14T21:32:11.753Z,13.82
2023-04-14T21:34:37.920Z,13.77
2023-04-14T21:37:04.595Z,13.79
2023-04-14T21:39:32.341Z,13.77
2023-04-14T21:41:59.664Z,13.75
2023-04-14T21:44:26.474Z,13.68
2023-04-14T21:46:54.169Z,13.62
2023-04-14T21:49:20.598Z,13.64
2023-04-14T21:51:49.389Z,13.64
2023-04-14T21:54:15.586Z,13.60
2023-04-14T21:56:42.240Z,13.52
2023-04-14T21:59:08.441Z,13.49
2023-04-14T22:01:35.603Z,13.40
2023-04-14T22:04:02.419Z,13.39
2023-04-14T22:06:28.916Z,13.35
2023-04-14T22:08:55.459Z,13.33
2023-04-14T22:11:22.460Z,13.30
2023-04-14T22:13:48.815Z,13.20
2023-04-14T22:16:19.194Z,13.13
2023-04-14T22:18:45.710Z,13.10
2023-04-14T22:21:14.061Z,13.10
2023-04-14T22:23:42.990Z,13.10
2023-04-14T22:26:09.985Z,13.05
2023-04-14T22:28:36.494Z,13.01
2023-04-14T22:31:03.550Z,12.98
2023-04-14T22:33:29.780Z,12.85
2023-04-14T22:35:56.384Z,12.85
2023-04-14T22:38:22.537Z,12.82
2023-04-14T22:40:51.030Z,12.82
2023-04-14T22:43:18.495Z,12.79
2023-04-14T22:45:45.049Z,12.76
2023-04-14T22:48:11.264Z,12.72
2023-04-14T22:50:38.213Z,12.65
2023-04-14T22:53:05.070Z,12.67
2023-04-14T22:55:32.132Z,12.69
2023-04-14T22:57:58.393Z,12.62
2023-04-14T23:00:24.777Z,12.61
2023-04-14T23:02:51.667Z,12.61
2023-04-14T23:05:18.263Z,12.60
2023-04-14T23:07:44.965Z,12.59
2023-04-14T23:10:11.388Z,12.55
2023-04-14T23:12:40.402Z,12.58
2023-04-14T23:15:07.454Z,12.53
2023-04-14T23:17:33.897Z,12.55
2023-04-14T23:20:01.314Z,12.51
2023-04-14T23:22:27.690Z,12.49
2023-04-14T23:24:54.062Z,12.51
2023-04-14T23:27:20.578Z,12.53
2023-04-14T23:29:47.314Z,12.46
2023-04-14T23:32:14.044Z,12.40
2023-04-14T23:34:41.004Z,12.47
2023-04-14T23:37:07.665Z,12.48
2023-04-14T23:39:34.021Z,12.47
2023-04-14T23:42:00.217Z,12.43
2023-04-14T23:44:26.716Z,12.33
2023-04-14T23:46:52.847Z,12.38
2023-04-14T23:49:23.626Z,12.37
2023-04-14T23:51:50.907Z,12.38
2023-04-14T23:54:17.295Z,12.36
2023-04-14T23:56:43.385Z,12.33
2023-04-14T23:59:09.817Z,12.33
